Share

Arrey, NM

Truth Or Consequences Municipal (KTCS) Elev 4859 ft | 33.24 °N, 107.27 °W | Change Station

Current weather conditions updated 39 minutes ago

Clear
Clear
56 °F
Feels Like 56 °F
N
5
Wind Variable Wind from WNW
Sunrise 6:36 AM
Sunset 7:41 PM
Moon Waning Gibbous

Today is forecast to be nearly the same temperature as yesterday.

Pressure 29.96 in
Visibility 10.0 miles
Clouds Clear
Dew Point 22 °F
Humidity 27%
Rainfall 0.00 in
Snow Depth Not available.
UV 1 out of 16
Pollen 8.50 out of 12
Air Quality Not available.
Flu Activity Local Activity
METAR KTCS 181353Z AUTO 30004KT 10SM CLR 13/M06 A3014 RMK AO2 SLP146 T01331056

More Conditions Fewer Conditions

Pressure 29.96 in
Visibility 10.0 miles
Clouds Clear
Dew Point 22 °F
Humidity 27%
Rainfall 0.00 in
Snow Depth Not available.
UV 1 out of 16
Pollen 8.50 out of 12
Air Quality Not available.
Flu Activity Local Activity
METAR KTCS 181353Z AUTO 30004KT 10SM CLR 13/M06 A3014 RMK AO2 SLP146 T01331056

More Conditions Fewer Conditions

10-Day Forecast

Almanac

Astronomy

Apr. 18, 2014 Rise Set
Actual Time 6:36 AM MDT 7:41 PM MDT
Civil Twilight 6:11 AM MDT 8:07 PM MDT
Nautical Twilight 5:40 AM MDT 8:37 PM MDT
Astronomical Twilight 5:09 AM MDT 9:09 PM MDT
Moon 11:22 PM MDT 9:08 AM MDT
Length of Visible Light 13h 56m
Length of Day
13h 05m
Tomorrow will be 1m 54s longer.
Waning Gibbous, 88% of the Moon is Illuminated
Today
Waning Gibbous
Apr 22
Last Quarter
Apr 29
New
May 6
First Quarter
May 14
Full

Today's Extremes

State Highs State Lows

Community

  • What's for Lunch?
    What's for Lunch?
  • SUNRISE THROUGH THE TREES.
    SUNRISE THROUGH THE TREES.
  • Dog Wood Blossoms
    Dog Wood Blossoms
  • Morning Light
    Morning Light
  • New Day
    New Day

WunderPhotos

Upload Photos

1,702,379 photos uploaded!

Nearby

Snow Depth

Station Depth Elevation
McKnight Cabin 2 in 9240 ft
Signal Peak 0 in 8360 ft
Lookout Mountain 0 in 8500 ft
Silver Creek Divide 1 in 9000 ft
Frisco Divide 0 in 8000 ft

Coastal Water Temperatures

Place Temperature
No Stations Reporting

Earthquake Activity

City Distance Mag. Time & Date
No recent earthquake activity has been reported nearby.
Minimum magnitude displayed is 2.5.

Nearby Weather Stations

There are no personal weather stations in this area.

What do you think?

We're not finished. Please let us know what you like, what you don't like, and what you are still missing.